createdAt,value
2022-12-09T00:01:14.983Z,20.13
2022-12-09T00:03:43.689Z,21.27
2022-12-09T00:06:23.407Z,19.17
2022-12-09T00:08:51.678Z,19.77
2022-12-09T00:11:20.416Z,18.90
2022-12-09T00:13:50.100Z,19.75
2022-12-09T00:16:18.340Z,16.83
2022-12-09T00:18:46.356Z,18.30
2022-12-09T00:21:14.997Z,17.55
2022-12-09T00:23:42.528Z,17.92
2022-12-09T00:26:10.505Z,18.25
2022-12-09T00:28:39.077Z,18.52
2022-12-09T00:31:08.021Z,17.10
2022-12-09T00:33:36.217Z,17.00
2022-12-09T00:36:18.088Z,17.92
2022-12-09T00:41:14.677Z,16.00
2022-12-09T00:43:42.812Z,16.38
2022-12-09T00:46:11.354Z,17.17
2022-12-09T00:48:39.701Z,16.08
2022-12-09T00:51:08.844Z,15.95
2022-12-09T00:53:36.709Z,15.45
2022-12-09T00:56:04.247Z,16.00
2022-12-09T00:58:32.062Z,16.05
2022-12-09T01:00:59.312Z,16.52
2022-12-09T01:03:27.579Z,16.13
2022-12-09T01:05:55.984Z,16.15
2022-12-09T01:08:23.845Z,16.35
2022-12-09T01:10:51.276Z,20.90
2022-12-09T01:13:18.788Z,15.32
2022-12-09T01:15:47.852Z,17.55
2022-12-09T01:18:15.457Z,15.77
2022-12-09T01:20:42.824Z,18.23
2022-12-09T01:23:11.467Z,16.00
2022-12-09T01:25:39.399Z,16.15
2022-12-09T01:28:07.319Z,15.90
2022-12-09T01:30:34.889Z,16.23
2022-12-09T01:33:02.481Z,14.68
2022-12-09T01:35:30.014Z,15.30
2022-12-09T01:37:57.887Z,18.65
2022-12-09T01:40:25.743Z,15.95
2022-12-09T01:42:54.812Z,14.98
2022-12-09T01:45:22.407Z,16.25
2022-12-09T01:48:11.332Z,15.93
2022-12-09T01:50:46.899Z,15.27
2022-12-09T01:53:16.901Z,14.88
2022-12-09T01:55:45.139Z,14.82
2022-12-09T01:58:14.875Z,15.05
2022-12-09T02:00:44.065Z,14.68
2022-12-09T02:03:12.886Z,14.35
2022-12-09T02:05:40.642Z,13.30
2022-12-09T02:08:13.794Z,13.65
2022-12-09T02:10:52.259Z,11.50
2022-12-09T02:13:29.988Z,11.02
2022-12-09T02:15:59.902Z,10.15
2022-12-09T02:18:38.511Z,10.63
2022-12-09T02:21:13.004Z,9.60
2022-12-09T02:23:53.771Z,10.82
2022-12-09T02:26:41.292Z,10.48
2022-12-09T02:29:24.888Z,11.60
2022-12-09T02:32:20.046Z,10.75
2022-12-09T02:34:55.450Z,9.95
2022-12-09T02:37:30.321Z,10.75
2022-12-09T02:40:08.483Z,11.25
2022-12-09T02:42:40.671Z,9.70
2022-12-09T02:45:11.070Z,11.15
2022-12-09T02:47:47.504Z,10.15
2022-12-09T02:50:20.984Z,11.75
2022-12-09T02:52:51.575Z,11.57
2022-12-09T02:55:22.345Z,12.52
2022-12-09T02:57:57.197Z,12.70
2022-12-09T03:00:25.310Z,10.00
2022-12-09T03:02:56.245Z,11.15
2022-12-09T03:08:22.385Z,9.48
2022-12-09T03:10:53.624Z,11.45
2022-12-09T03:13:45.714Z,11.07
2022-12-09T03:16:39.273Z,11.30
2022-12-09T03:19:27.826Z,11.35
2022-12-09T03:21:59.285Z,11.98
2022-12-09T03:27:09.303Z,19.58
2022-12-09T03:29:41.604Z,24.38
2022-12-09T03:32:15.382Z,23.65
2022-12-09T03:34:46.828Z,26.73
2022-12-09T03:37:18.236Z,22.33
2022-12-09T03:39:46.981Z,15.18
2022-12-09T03:42:27.827Z,16.67
2022-12-09T03:45:01.286Z,14.32
2022-12-09T03:47:32.768Z,13.95
2022-12-09T03:50:00.577Z,15.80
2022-12-09T03:52:31.255Z,11.15
2022-12-09T03:55:09.434Z,11.82
2022-12-09T03:57:42.017Z,11.55
2022-12-09T04:00:10.924Z,11.10
2022-12-09T04:02:41.886Z,11.38
2022-12-09T04:05:09.579Z,11.02
2022-12-09T04:07:37.631Z,11.77
2022-12-09T04:10:06.206Z,11.98
2022-12-09T04:12:34.512Z,12.52
2022-12-09T04:15:02.061Z,11.73
2022-12-09T04:17:29.860Z,11.48
2022-12-09T04:19:58.023Z,11.05
2022-12-09T04:22:25.717Z,12.00
2022-12-09T04:24:53.610Z,9.18
2022-12-09T04:27:21.189Z,9.77
2022-12-09T04:29:48.757Z,11.68
2022-12-09T04:32:16.667Z,10.57
2022-12-09T04:34:44.182Z,10.63
2022-12-09T04:37:13.157Z,10.95
2022-12-09T04:39:41.937Z,10.75
2022-12-09T04:42:09.636Z,10.80
2022-12-09T04:44:37.202Z,11.48
2022-12-09T04:47:05.010Z,11.27
2022-12-09T04:49:32.405Z,10.02
2022-12-09T04:52:00.171Z,10.10
2022-12-09T04:54:27.628Z,10.32
2022-12-09T04:56:55.699Z,10.18
2022-12-09T04:59:23.117Z,8.95
2022-12-09T05:01:50.945Z,9.55
2022-12-09T05:04:18.810Z,9.88
2022-12-09T05:06:46.535Z,10.00
2022-12-09T05:09:14.462Z,9.68
2022-12-09T05:11:42.251Z,10.57
2022-12-09T05:14:09.669Z,10.55
2022-12-09T05:16:37.935Z,9.73
2022-12-09T05:19:05.526Z,10.77
2022-12-09T05:21:33.516Z,10.35
2022-12-09T05:24:05.062Z,11.30
2022-12-09T05:29:00.276Z,10.85
2022-12-09T05:31:28.342Z,11.63
2022-12-09T05:33:56.239Z,10.70
2022-12-09T05:36:25.808Z,11.95
2022-12-09T05:38:55.391Z,12.00
2022-12-09T05:41:24.372Z,11.52
2022-12-09T05:43:52.643Z,12.70
2022-12-09T05:46:21.469Z,12.38
2022-12-09T05:48:49.952Z,11.63
2022-12-09T05:51:26.562Z,12.23
2022-12-09T05:53:55.055Z,10.48
2022-12-09T05:56:24.566Z,11.20
2022-12-09T05:58:53.406Z,11.48
2022-12-09T06:01:21.452Z,10.52
2022-12-09T06:03:51.206Z,11.93
2022-12-09T06:06:21.659Z,12.77
2022-12-09T06:08:54.333Z,10.77
2022-12-09T06:11:23.092Z,12.18
2022-12-09T06:13:51.927Z,11.73
2022-12-09T06:16:21.921Z,10.82
2022-12-09T06:18:50.495Z,10.98
2022-12-09T06:21:20.908Z,11.50
2022-12-09T06:23:50.627Z,10.30
2022-12-09T06:26:21.671Z,10.80
2022-12-09T06:28:49.541Z,10.82
2022-12-09T06:31:18.145Z,11.98
2022-12-09T06:33:54.633Z,10.35
2022-12-09T06:36:24.992Z,11.32
2022-12-09T06:38:52.723Z,10.40
2022-12-09T06:41:20.647Z,10.45
2022-12-09T06:43:48.261Z,10.43
2022-12-09T06:46:18.731Z,11.85
2022-12-09T06:48:47.522Z,10.82
2022-12-09T06:51:17.761Z,11.35
2022-12-09T06:53:46.209Z,10.77
2022-12-09T06:56:15.122Z,11.70
2022-12-09T06:58:43.882Z,11.90
2022-12-09T07:01:20.284Z,10.98
2022-12-09T07:03:51.433Z,11.77
2022-12-09T07:06:32.811Z,10.93
2022-12-09T07:09:03.255Z,12.18
2022-12-09T07:11:31.450Z,11.63
2022-12-09T07:13:59.656Z,9.70
2022-12-09T07:16:28.548Z,9.98
2022-12-09T07:18:56.582Z,10.80
2022-12-09T07:21:24.953Z,9.32
2022-12-09T07:23:52.791Z,11.15
2022-12-09T07:26:21.409Z,10.05
2022-12-09T07:28:50.568Z,11.13
2022-12-09T07:31:25.280Z,10.43
2022-12-09T07:33:54.600Z,11.93
2022-12-09T07:36:27.950Z,10.30
2022-12-09T07:39:03.997Z,10.10
2022-12-09T07:41:32.392Z,10.40
2022-12-09T07:43:59.874Z,10.25
2022-12-09T07:46:27.865Z,9.90
2022-12-09T07:48:57.326Z,9.30
2022-12-09T07:51:25.974Z,10.05
2022-12-09T07:53:54.191Z,10.02
2022-12-09T07:56:24.024Z,9.85
2022-12-09T07:58:54.119Z,8.23
2022-12-09T08:01:25.984Z,8.82
2022-12-09T08:03:54.801Z,10.05
2022-12-09T08:06:25.956Z,9.68
2022-12-09T08:08:53.913Z,9.70
2022-12-09T08:11:24.514Z,10.10
2022-12-09T08:13:53.225Z,10.98
2022-12-09T08:16:23.295Z,9.93
2022-12-09T08:18:52.599Z,10.75
2022-12-09T08:21:26.939Z,10.15
2022-12-09T08:24:00.503Z,11.98
2022-12-09T08:26:31.454Z,10.90
2022-12-09T08:28:59.862Z,14.50
2022-12-09T08:31:28.587Z,13.95
2022-12-09T08:33:57.032Z,13.13
2022-12-09T08:36:27.336Z,12.93
2022-12-09T08:38:56.243Z,12.25
2022-12-09T08:41:38.046Z,11.13
2022-12-09T08:44:15.230Z,10.80
2022-12-09T08:46:46.445Z,11.05
2022-12-09T08:49:19.254Z,10.70
2022-12-09T08:51:49.493Z,9.82
2022-12-09T08:54:17.291Z,10.10
2022-12-09T08:56:50.800Z,9.40
2022-12-09T08:59:18.777Z,10.60
2022-12-09T09:01:47.421Z,12.15
2022-12-09T09:04:18.464Z,10.90
2022-12-09T09:06:50.271Z,10.73
2022-12-09T09:09:19.733Z,11.15
2022-12-09T09:11:48.258Z,10.10
2022-12-09T09:14:16.517Z,10.02
2022-12-09T09:16:45.410Z,10.38
2022-12-09T09:19:17.418Z,9.90
2022-12-09T09:21:45.202Z,10.13
2022-12-09T09:24:16.781Z,10.70
2022-12-09T09:26:44.985Z,9.93
2022-12-09T09:29:14.442Z,10.90
2022-12-09T09:31:43.009Z,10.68
2022-12-09T09:34:11.491Z,10.10
2022-12-09T09:36:40.585Z,10.55
2022-12-09T09:39:08.428Z,9.88
2022-12-09T09:42:05.958Z,11.23
2022-12-09T09:44:45.517Z,10.68
2022-12-09T09:47:44.055Z,10.63
2022-12-09T09:50:32.803Z,9.07
2022-12-09T09:53:10.324Z,8.65
2022-12-09T09:55:50.432Z,9.32
2022-12-09T09:58:27.117Z,9.82
2022-12-09T10:01:16.480Z,12.23
2022-12-09T10:04:07.539Z,10.43
2022-12-09T10:06:50.909Z,11.25
2022-12-09T10:09:25.662Z,11.32
2022-12-09T10:12:10.953Z,11.52
2022-12-09T10:14:51.413Z,11.32
2022-12-09T10:17:25.062Z,10.07
2022-12-09T10:19:58.569Z,9.68
2022-12-09T10:22:30.637Z,10.27
2022-12-09T10:27:43.374Z,11.52
2022-12-09T10:30:14.099Z,12.18
2022-12-09T10:32:42.292Z,13.48
2022-12-09T10:35:22.535Z,12.68
2022-12-09T10:37:54.999Z,11.73
2022-12-09T10:40:47.389Z,12.60
2022-12-09T10:43:35.304Z,11.75
2022-12-09T10:46:23.183Z,11.77
2022-12-09T10:48:51.334Z,12.15
2022-12-09T10:51:32.023Z,12.65
2022-12-09T10:54:33.616Z,12.35
2022-12-09T10:57:17.069Z,11.88
2022-12-09T11:00:08.299Z,11.32
2022-12-09T11:02:36.619Z,10.88
2022-12-09T11:05:28.703Z,11.75
2022-12-09T11:07:58.629Z,11.68
2022-12-09T11:10:29.447Z,11.77
2022-12-09T11:13:05.294Z,10.93
2022-12-09T11:15:39.730Z,10.82
2022-12-09T11:18:21.352Z,11.57
2022-12-09T11:21:00.909Z,12.10
2022-12-09T11:23:29.896Z,12.02
2022-12-09T11:26:24.547Z,11.45
2022-12-09T11:29:24.832Z,13.10
2022-12-09T11:31:52.483Z,12.15
2022-12-09T11:34:26.258Z,12.27
2022-12-09T11:36:57.845Z,13.57
2022-12-09T11:39:35.512Z,13.00
2022-12-09T11:42:19.847Z,13.68
2022-12-09T11:45:00.768Z,12.95
2022-12-09T11:47:44.854Z,11.60
2022-12-09T11:50:32.399Z,11.98
2022-12-09T11:53:12.292Z,11.85
2022-12-09T11:55:45.228Z,12.50
2022-12-09T11:58:18.644Z,11.98
2022-12-09T12:00:51.777Z,11.30
2022-12-09T12:03:24.824Z,10.40
2022-12-09T12:05:55.281Z,9.50
2022-12-09T12:08:43.713Z,8.65
2022-12-09T12:11:16.414Z,8.40
2022-12-09T12:13:49.963Z,9.40
2022-12-09T12:16:39.518Z,8.32
2022-12-09T12:19:33.520Z,7.78
2022-12-09T12:22:28.958Z,9.63
2022-12-09T12:25:17.084Z,8.77
2022-12-09T12:28:04.069Z,10.13
2022-12-09T12:30:54.653Z,11.27
2022-12-09T12:34:16.227Z,10.88
2022-12-09T12:36:52.583Z,10.05
2022-12-09T12:39:35.290Z,9.98
2022-12-09T12:42:20.924Z,10.50
2022-12-09T12:45:28.528Z,10.43
2022-12-09T12:48:23.467Z,9.77
2022-12-09T12:51:42.903Z,9.50
2022-12-09T12:54:37.552Z,10.95
2022-12-09T12:57:23.742Z,11.48
2022-12-09T13:00:16.334Z,10.93
2022-12-09T13:03:09.032Z,10.93
2022-12-09T13:05:41.563Z,10.90
2022-12-09T13:08:17.883Z,10.30
2022-12-09T13:10:57.262Z,10.77
2022-12-09T13:13:36.648Z,10.63
2022-12-09T13:16:35.218Z,11.13
2022-12-09T13:19:26.794Z,9.85
2022-12-09T13:21:54.682Z,10.23
2022-12-09T13:24:47.690Z,11.88
2022-12-09T13:27:24.535Z,11.15
2022-12-09T13:29:57.656Z,11.60
2022-12-09T13:32:52.559Z,11.18
2022-12-09T13:35:23.587Z,12.27
2022-12-09T13:37:52.483Z,10.55
2022-12-09T13:40:36.897Z,12.98
2022-12-09T13:43:06.602Z,12.27
2022-12-09T13:45:43.476Z,12.45
2022-12-09T13:48:16.476Z,14.25
2022-12-09T13:51:00.196Z,12.68
2022-12-09T13:53:36.740Z,13.73
2022-12-09T13:56:09.787Z,13.88
2022-12-09T13:58:55.277Z,12.90
2022-12-09T14:01:52.871Z,14.52
2022-12-09T14:04:30.410Z,11.65
2022-12-09T14:07:21.802Z,12.65
2022-12-09T14:09:56.614Z,12.60
2022-12-09T14:12:26.884Z,13.50
2022-12-09T14:14:56.353Z,11.70
2022-12-09T14:17:23.956Z,13.25
2022-12-09T14:19:51.243Z,11.98
2022-12-09T14:22:19.711Z,11.80
2022-12-09T14:24:55.027Z,13.00
2022-12-09T14:27:31.043Z,12.57
2022-12-09T14:30:04.056Z,13.10
2022-12-09T14:32:52.287Z,11.73
2022-12-09T14:35:44.214Z,12.25
2022-12-09T14:40:53.416Z,13.18
2022-12-09T14:46:00.897Z,11.93
2022-12-09T14:48:35.743Z,12.77
2022-12-09T14:51:13.019Z,13.13
2022-12-09T14:53:40.740Z,12.98
2022-12-09T14:56:08.712Z,12.45
2022-12-09T14:58:36.352Z,14.60
2022-12-09T15:01:06.595Z,13.43
2022-12-09T15:03:43.111Z,13.65
2022-12-09T15:06:17.071Z,13.48
2022-12-09T15:08:45.197Z,13.35
2022-12-09T15:11:16.965Z,13.85
2022-12-09T15:13:48.106Z,14.23
2022-12-09T15:16:19.724Z,13.63
2022-12-09T15:21:30.622Z,13.52
2022-12-09T15:24:00.837Z,14.57
2022-12-09T15:26:32.893Z,14.07
2022-12-09T15:29:01.440Z,14.27
2022-12-09T15:31:30.671Z,14.55
2022-12-09T15:34:07.754Z,15.10
2022-12-09T15:36:44.224Z,14.90
2022-12-09T15:39:23.683Z,14.73
2022-12-09T15:42:08.129Z,15.35
2022-12-09T15:44:49.199Z,14.82
2022-12-09T15:47:26.080Z,14.93
2022-12-09T15:50:11.329Z,14.57
2022-12-09T15:52:45.724Z,16.48
2022-12-09T15:55:18.052Z,15.02
2022-12-09T16:00:14.625Z,14.95
2022-12-09T16:02:45.467Z,15.80
2022-12-09T16:05:13.375Z,16.10
2022-12-09T16:07:56.207Z,16.05
2022-12-09T16:10:27.066Z,16.13
2022-12-09T16:13:06.917Z,16.65
2022-12-09T16:15:55.915Z,17.65
2022-12-09T16:18:26.950Z,16.75
2022-12-09T16:21:16.265Z,19.13
2022-12-09T16:23:47.163Z,18.05
2022-12-09T16:26:23.592Z,18.85
2022-12-09T16:29:03.109Z,19.63
2022-12-09T16:31:31.065Z,27.88
2022-12-09T16:33:58.564Z,20.17
2022-12-09T16:36:31.944Z,18.50
2022-12-09T16:39:08.430Z,18.35
2022-12-09T16:41:51.212Z,18.92
2022-12-09T16:44:21.133Z,17.35
2022-12-09T16:46:48.895Z,17.88
2022-12-09T16:49:16.125Z,17.77
2022-12-09T16:51:44.081Z,25.67
2022-12-09T16:54:20.279Z,23.50
2022-12-09T16:56:49.010Z,19.90
2022-12-09T16:59:16.324Z,15.98
2022-12-09T17:01:44.222Z,19.35
2022-12-09T17:04:19.418Z,18.33
2022-12-09T17:06:47.069Z,18.88
2022-12-09T17:09:14.584Z,20.48
2022-12-09T17:11:48.359Z,18.35
2022-12-09T17:14:17.095Z,15.68
2022-12-09T17:16:44.887Z,15.63
2022-12-09T17:19:13.204Z,15.57
2022-12-09T17:21:40.745Z,15.23
2022-12-09T17:24:10.052Z,16.85
2022-12-09T17:26:37.712Z,15.75
2022-12-09T17:29:07.194Z,15.23
2022-12-09T17:31:35.030Z,15.43
2022-12-09T17:34:02.308Z,15.82
2022-12-09T17:36:29.925Z,15.45
2022-12-09T17:39:01.987Z,16.58
2022-12-09T17:41:29.773Z,16.98
2022-12-09T17:43:57.944Z,16.90
2022-12-09T17:46:25.590Z,14.98
2022-12-09T17:48:52.879Z,14.55
2022-12-09T17:51:20.770Z,14.80
2022-12-09T17:53:48.538Z,16.75
2022-12-09T17:56:21.972Z,14.90
2022-12-09T17:58:56.904Z,14.02
2022-12-09T18:01:25.086Z,13.45
2022-12-09T18:03:59.236Z,12.90
2022-12-09T18:06:31.784Z,10.70
2022-12-09T18:08:58.993Z,8.60
2022-12-09T18:11:27.081Z,11.07
2022-12-09T18:13:54.433Z,10.57
2022-12-09T18:16:22.062Z,10.45
2022-12-09T18:18:49.473Z,11.23
2022-12-09T18:21:19.813Z,12.45
2022-12-09T18:23:48.395Z,11.82
2022-12-09T18:26:18.495Z,6.18
2022-12-09T18:28:45.748Z,5.10
2022-12-09T18:31:16.422Z,9.30
2022-12-09T18:33:43.751Z,4.38
2022-12-09T18:36:14.019Z,6.32
2022-12-09T18:38:42.244Z,7.13
2022-12-09T18:41:19.898Z,7.70
2022-12-09T18:43:49.504Z,10.52
2022-12-09T18:46:24.987Z,9.52
2022-12-09T18:49:07.839Z,10.80
2022-12-09T18:51:35.675Z,9.18
2022-12-09T18:54:04.115Z,9.40
2022-12-09T18:56:32.332Z,8.45
2022-12-09T18:59:08.581Z,11.48
2022-12-09T19:01:41.020Z,11.13
2022-12-09T19:04:13.592Z,12.10
2022-12-09T19:06:43.933Z,11.68
2022-12-09T19:09:15.150Z,11.68
2022-12-09T19:11:44.119Z,9.55
2022-12-09T19:14:11.803Z,9.43
2022-12-09T19:16:39.455Z,10.35
2022-12-09T19:19:10.398Z,11.75
2022-12-09T19:21:39.441Z,10.90
2022-12-09T19:24:07.862Z,8.38
2022-12-09T19:26:36.600Z,8.88
2022-12-09T19:29:06.853Z,9.10
2022-12-09T19:31:40.962Z,10.15
2022-12-09T19:34:17.576Z,7.55
2022-12-09T19:36:46.513Z,8.68
2022-12-09T19:39:15.094Z,10.02
2022-12-09T19:41:43.542Z,9.55
2022-12-09T19:44:15.343Z,10.57
2022-12-09T19:46:43.996Z,13.40
2022-12-09T19:49:16.385Z,12.77
2022-12-09T19:51:44.486Z,13.13
2022-12-09T19:54:11.735Z,13.45
2022-12-09T19:56:40.085Z,11.75
2022-12-09T19:59:07.613Z,13.35
2022-12-09T20:01:38.426Z,10.55
2022-12-09T20:04:47.603Z,12.18
2022-12-09T20:07:08.315Z,15.05
2022-12-09T20:09:36.974Z,14.48
2022-12-09T20:12:05.149Z,13.85
2022-12-09T20:14:32.433Z,14.23
2022-12-09T20:17:00.040Z,15.95
2022-12-09T20:19:27.924Z,14.63
2022-12-09T20:21:55.656Z,14.50
2022-12-09T20:24:23.191Z,14.43
2022-12-09T20:26:50.830Z,15.55
2022-12-09T20:29:18.097Z,14.55
2022-12-09T20:31:45.735Z,13.82
2022-12-09T20:34:16.242Z,14.70
2022-12-09T20:36:45.102Z,13.45
2022-12-09T20:39:18.711Z,14.25
2022-12-09T20:41:47.310Z,13.95
2022-12-09T20:44:15.937Z,12.02
2022-12-09T20:46:49.774Z,12.65
2022-12-09T20:49:17.611Z,8.00
2022-12-09T20:51:45.575Z,11.15
2022-12-09T20:54:13.568Z,10.75
2022-12-09T20:56:41.316Z,5.93
2022-12-09T20:59:10.646Z,13.52
2022-12-09T21:01:38.371Z,13.00
2022-12-09T21:04:07.228Z,14.52
2022-12-09T21:06:38.223Z,13.18
2022-12-09T21:09:12.869Z,14.25
2022-12-09T21:11:40.823Z,14.95
2022-12-09T21:14:08.570Z,15.23
2022-12-09T21:16:39.683Z,15.70
2022-12-09T21:19:10.454Z,17.55
2022-12-09T21:21:40.534Z,16.67
2022-12-09T21:24:09.535Z,16.50
2022-12-09T21:26:37.607Z,17.42
2022-12-09T21:29:04.814Z,16.23
2022-12-09T21:31:35.742Z,13.82
2022-12-09T21:34:06.347Z,8.65
2022-12-09T21:36:37.025Z,11.98
2022-12-09T21:39:06.537Z,12.63
2022-12-09T21:41:36.597Z,10.88
2022-12-09T21:44:05.121Z,11.30
2022-12-09T21:46:37.829Z,10.77
2022-12-09T21:49:06.661Z,10.23
2022-12-09T21:51:35.025Z,11.38
2022-12-09T21:54:02.612Z,10.60
2022-12-09T21:56:32.828Z,10.73
2022-12-09T21:59:00.877Z,11.32
2022-12-09T22:01:35.022Z,9.82
2022-12-09T22:04:04.157Z,10.65
2022-12-09T22:06:32.397Z,10.85
2022-12-09T22:09:00.686Z,8.45
2022-12-09T22:11:31.303Z,7.13
2022-12-09T22:14:00.273Z,7.15
2022-12-09T22:16:31.055Z,8.30
2022-12-09T22:18:59.874Z,8.63
2022-12-09T22:21:30.153Z,9.48
2022-12-09T22:24:01.197Z,7.65
2022-12-09T22:26:29.297Z,5.37
2022-12-09T22:28:59.548Z,6.20
2022-12-09T22:31:30.362Z,5.38
2022-12-09T22:34:01.387Z,6.53
2022-12-09T22:36:29.412Z,6.85
2022-12-09T22:38:56.790Z,6.95
2022-12-09T22:41:26.607Z,6.75
2022-12-09T22:43:55.019Z,8.85
2022-12-09T22:46:28.412Z,7.80
2022-12-09T22:48:57.705Z,7.68
2022-12-09T22:51:28.839Z,7.85
2022-12-09T22:53:57.459Z,8.13
2022-12-09T22:56:25.897Z,8.95
2022-12-09T22:58:53.471Z,8.20
2022-12-09T23:01:24.964Z,9.48
2022-12-09T23:03:53.697Z,8.93
2022-12-09T23:06:21.482Z,8.98
2022-12-09T23:08:49.230Z,8.20
2022-12-09T23:11:19.507Z,8.32
2022-12-09T23:13:47.432Z,8.82
2022-12-09T23:16:20.434Z,8.75
2022-12-09T23:18:48.347Z,8.82
2022-12-09T23:21:20.547Z,6.85
2022-12-09T23:23:47.807Z,8.63
2022-12-09T23:26:19.074Z,3.58
2022-12-09T23:28:49.375Z,4.95
2022-12-09T23:31:18.797Z,4.75
2022-12-09T23:33:47.578Z,7.43
2022-12-09T23:36:33.765Z,4.85
2022-12-09T23:39:02.989Z,3.53
2022-12-09T23:41:31.355Z,4.65
2022-12-09T23:43:58.664Z,3.75
2022-12-09T23:46:27.883Z,2.35
2022-12-09T23:48:56.242Z,2.70
2022-12-09T23:51:26.702Z,3.85
2022-12-09T23:53:59.436Z,3.22
2022-12-09T23:56:29.512Z,4.32
2022-12-09T23:59:03.475Z,3.28
